createdAt,value
2022-10-01T00:04:46.812Z,100368.88
2022-10-01T00:09:49.827Z,100372.25
2022-10-01T00:14:54.283Z,100380.03
2022-10-01T00:19:57.241Z,100375.69
2022-10-01T00:25:00.531Z,100383.50
2022-10-01T00:30:05.368Z,100393.19
2022-10-01T00:35:09.569Z,100394.13
2022-10-01T00:40:12.546Z,100393.06
2022-10-01T00:45:17.298Z,100397.31
2022-10-01T00:50:23.889Z,100406.09
2022-10-01T00:55:27.899Z,100406.19
2022-10-01T01:00:32.878Z,100389.72
2022-10-01T01:05:35.812Z,100373.94
2022-10-01T01:10:45.394Z,100373.13
2022-10-01T01:15:52.838Z,100367.06
2022-10-01T01:21:14.033Z,100374.09
2022-10-01T01:26:23.681Z,100379.28
2022-10-01T01:31:31.346Z,100385.53
2022-10-01T01:36:37.154Z,100381.91
2022-10-01T01:41:43.100Z,100396.66
2022-10-01T01:46:49.447Z,100389.66
2022-10-01T01:51:55.106Z,100392.31
2022-10-01T01:56:58.978Z,100401.91
2022-10-01T02:02:04.282Z,100399.28
2022-10-01T02:07:15.301Z,100415.78
2022-10-01T02:12:24.044Z,100410.63
2022-10-01T02:17:31.531Z,100414.97
2022-10-01T02:22:37.787Z,100407.22
2022-10-01T02:27:44.544Z,100416.78
2022-10-01T02:32:51.129Z,100407.19
2022-10-01T02:37:56.660Z,100408.19
2022-10-01T02:43:03.370Z,100402.97
2022-10-01T02:48:09.496Z,100396.16
2022-10-01T02:53:15.102Z,100380.63
2022-10-01T02:58:19.249Z,100382.41
2022-10-01T03:03:26.100Z,100384.97
2022-10-01T03:08:29.505Z,100373.72
2022-10-01T03:13:32.471Z,100366.81
2022-10-01T03:18:36.786Z,100353.78
2022-10-01T03:23:39.710Z,100340.94
2022-10-01T03:28:42.651Z,100339.16
2022-10-01T03:33:46.901Z,100338.31
2022-10-01T03:38:49.893Z,100334.00
2022-10-01T03:43:55.102Z,100339.50
2022-10-01T03:49:02.802Z,100354.16
2022-10-01T03:54:06.595Z,100362.84
2022-10-01T03:59:09.707Z,100370.63
2022-10-01T04:04:14.949Z,100375.09
2022-10-01T04:09:17.950Z,100368.41
2022-10-01T04:14:20.955Z,100373.59
2022-10-01T04:19:25.429Z,100376.19
2022-10-01T04:24:28.401Z,100368.56
2022-10-01T04:29:31.306Z,100370.50
2022-10-01T04:34:53.458Z,100367.97
2022-10-01T04:39:56.618Z,100367.16
2022-10-01T04:44:59.565Z,100367.38
2022-10-01T04:50:03.943Z,100361.41
2022-10-01T04:55:07.134Z,100358.00
2022-10-01T05:00:11.650Z,100359.59
2022-10-01T05:05:17.092Z,100367.41
2022-10-01T05:10:21.070Z,100359.69
2022-10-01T05:15:24.101Z,100361.31
2022-10-01T05:20:29.193Z,100363.91
2022-10-01T05:25:32.337Z,100363.91
2022-10-01T05:30:35.244Z,100362.25
2022-10-01T05:35:41.431Z,100367.50
2022-10-01T05:40:46.095Z,100362.34
2022-10-01T05:45:50.013Z,100369.19
2022-10-01T05:50:55.013Z,100371.84
2022-10-01T05:56:00.265Z,100365.91
2022-10-01T06:01:04.187Z,100372.78
2022-10-01T06:06:08.554Z,100373.69
2022-10-01T06:11:11.506Z,100378.88
2022-10-01T06:16:14.639Z,100369.28
2022-10-01T06:21:18.960Z,100370.03
2022-10-01T06:26:22.414Z,100361.31
2022-10-01T06:31:27.903Z,100363.06
2022-10-01T06:36:32.410Z,100361.25
2022-10-01T06:41:35.733Z,100352.41
2022-10-01T06:46:39.311Z,100359.91
2022-10-01T06:52:00.877Z,100355.41
2022-10-01T06:57:03.783Z,100358.72
2022-10-01T07:02:06.817Z,100349.88
2022-10-01T07:07:11.152Z,100356.63
2022-10-01T07:12:14.095Z,100353.94
2022-10-01T07:17:17.210Z,100354.63
2022-10-01T07:22:24.253Z,100352.50
2022-10-01T07:27:27.288Z,100351.53
2022-10-01T07:32:31.668Z,100346.06
2022-10-01T07:37:36.022Z,100344.28
2022-10-01T07:42:39.413Z,100344.25
2022-10-01T07:47:42.487Z,100337.00
2022-10-01T07:52:46.786Z,100340.50
2022-10-01T07:57:53.251Z,100341.94
2022-10-01T08:02:57.039Z,100349.44
2022-10-01T08:08:02.389Z,100349.38
2022-10-01T08:13:14.377Z,100345.06
2022-10-01T08:18:17.553Z,100346.69
2022-10-01T08:23:22.104Z,100334.53
2022-10-01T08:28:25.881Z,100328.44
2022-10-01T08:33:28.849Z,100322.41
2022-10-01T08:38:33.180Z,100322.28
2022-10-01T08:43:38.445Z,100308.22
2022-10-01T08:48:46.225Z,100300.97
2022-10-01T08:53:52.044Z,100306.47
2022-10-01T08:58:58.693Z,100299.31
2022-10-01T09:04:01.907Z,100289.19
2022-10-01T09:09:26.296Z,100285.53
2022-10-01T09:14:36.879Z,100276.03
2022-10-01T09:19:57.725Z,100263.09
2022-10-01T09:25:07.114Z,100269.69
2022-10-01T09:30:13.351Z,100270.16
2022-10-01T09:35:22.143Z,100264.78
2022-10-01T09:40:30.385Z,100271.50
2022-10-01T09:45:33.385Z,100266.31
2022-10-01T09:50:41.279Z,100268.34
2022-10-01T09:55:48.774Z,100268.00
2022-10-01T10:00:53.655Z,100260.44
2022-10-01T10:05:57.023Z,100261.59
2022-10-01T10:11:02.730Z,100252.97
2022-10-01T10:16:11.026Z,100242.53
2022-10-01T10:21:16.424Z,100246.88
2022-10-01T10:26:21.945Z,100239.09
2022-10-01T10:31:26.563Z,100232.22
2022-10-01T10:36:30.624Z,100224.41
2022-10-01T10:41:35.636Z,100210.59
2022-10-01T10:46:42.899Z,100205.44
2022-10-01T10:51:54.187Z,100193.22
2022-10-01T10:57:02.658Z,100190.53
2022-10-01T11:02:07.117Z,100182.69
2022-10-01T11:07:10.861Z,100172.06
2022-10-01T11:12:21.145Z,100169.63
2022-10-01T11:17:45.791Z,100153.91
2022-10-01T11:22:54.947Z,100149.72
2022-10-01T11:28:03.597Z,100145.44
2022-10-01T11:33:12.020Z,100132.72
2022-10-01T11:38:24.366Z,100112.94
2022-10-01T11:43:32.955Z,100100.56
2022-10-01T11:48:39.485Z,100087.00
2022-10-01T11:53:45.552Z,100073.81
2022-10-01T11:58:52.815Z,100067.78
2022-10-01T12:04:08.288Z,100065.38
2022-10-01T12:09:15.424Z,100055.38
2022-10-01T12:14:22.783Z,100044.22
2022-10-01T12:19:27.757Z,100042.66
2022-10-01T12:24:32.475Z,100047.19
2022-10-01T12:29:43.077Z,100039.69
2022-10-01T12:34:54.057Z,100020.66
2022-10-01T12:40:02.405Z,100017.50
2022-10-01T12:45:12.706Z,100008.22
2022-10-01T12:50:33.591Z,99997.91
2022-10-01T12:55:47.998Z,99987.97
2022-10-01T13:00:59.092Z,99974.19
2022-10-01T13:06:07.702Z,99957.59
2022-10-01T13:11:20.620Z,99963.94
2022-10-01T13:16:32.646Z,99977.75
2022-10-01T13:21:43.929Z,99964.53
2022-10-01T13:26:50.793Z,99967.41
2022-10-01T13:31:57.435Z,99962.47
2022-10-01T13:37:10.368Z,99958.72
2022-10-01T13:42:18.426Z,99955.84
2022-10-01T13:47:23.269Z,99952.38
2022-10-01T13:52:26.502Z,99945.66
2022-10-01T13:57:31.402Z,99938.56
2022-10-01T14:02:36.889Z,99944.59
2022-10-01T14:07:40.392Z,99934.78
2022-10-01T14:13:01.978Z,99925.53
2022-10-01T14:18:09.078Z,99910.97
2022-10-01T14:23:13.154Z,99908.69
2022-10-01T14:28:22.911Z,99907.78
2022-10-01T14:33:40.551Z,99900.13
2022-10-01T14:38:43.522Z,99908.78
2022-10-01T14:43:46.490Z,99896.22
2022-10-01T14:48:59.277Z,99892.94
2022-10-01T14:54:02.552Z,99884.56
2022-10-01T14:59:07.297Z,99877.06
2022-10-01T15:04:20.850Z,99875.50
2022-10-01T15:09:23.904Z,99870.59
2022-10-01T15:14:27.128Z,99869.09
2022-10-01T15:19:32.074Z,99857.97
2022-10-01T15:24:39.468Z,99862.16
2022-10-01T15:29:43.390Z,99851.13
2022-10-01T15:34:50.860Z,99836.38
2022-10-01T15:39:54.898Z,99830.13
2022-10-01T15:45:15.758Z,99825.59
2022-10-01T15:50:21.403Z,99821.19
2022-10-01T15:55:28.483Z,99823.09
2022-10-01T16:00:33.159Z,99812.34
2022-10-01T16:05:38.852Z,99818.59
2022-10-01T16:10:42.035Z,99814.38
2022-10-01T16:15:45.027Z,99808.50
2022-10-01T16:20:58.259Z,99799.78
2022-10-01T16:26:01.508Z,99786.59
2022-10-01T16:31:05.111Z,99774.25
2022-10-01T16:36:10.874Z,99765.66
2022-10-01T16:41:17.651Z,99762.44
2022-10-01T16:46:20.752Z,99759.19
2022-10-01T16:51:25.034Z,99757.38
2022-10-01T16:56:27.967Z,99753.78
2022-10-01T17:01:31.143Z,99755.53
2022-10-01T17:06:36.081Z,99755.94
2022-10-01T17:11:39.492Z,99749.25
2022-10-01T17:16:43.150Z,99739.53
2022-10-01T17:21:47.777Z,99728.97
2022-10-01T17:26:50.717Z,99719.22
2022-10-01T17:31:53.743Z,99716.50
2022-10-01T17:36:59.895Z,99706.25
2022-10-01T17:42:02.870Z,99722.69
2022-10-01T17:47:05.942Z,99719.34
2022-10-01T17:52:10.977Z,99720.16
2022-10-01T17:57:13.991Z,99718.69
2022-10-01T18:02:39.758Z,99723.13
2022-10-01T18:07:41.220Z,99720.50
2022-10-01T18:12:44.115Z,99706.78
2022-10-01T18:17:52.081Z,99710.31
2022-10-01T18:22:56.411Z,99704.31
2022-10-01T18:27:59.428Z,99702.50
2022-10-01T18:33:03.343Z,99696.69
2022-10-01T18:38:12.958Z,99682.84
2022-10-01T18:43:18.529Z,99678.56
2022-10-01T18:48:31.994Z,99674.84
2022-10-01T18:53:44.102Z,99672.19
2022-10-01T18:58:59.377Z,99672.03
2022-10-01T19:04:17.193Z,99672.22
2022-10-01T19:09:41.551Z,99666.69
2022-10-01T19:14:50.075Z,99662.28
2022-10-01T19:19:59.816Z,99658.19
2022-10-01T19:25:10.604Z,99653.97
2022-10-01T19:30:15.462Z,99648.66
2022-10-01T19:35:20.301Z,99653.78
2022-10-01T19:40:30.328Z,99646.13
2022-10-01T19:45:39.160Z,99634.59
2022-10-01T19:50:44.514Z,99629.38
2022-10-01T19:55:49.473Z,99616.56
2022-10-01T20:00:54.947Z,99618.53
2022-10-01T20:05:59.887Z,99626.41
2022-10-01T20:11:12.453Z,99628.91
2022-10-01T20:16:19.544Z,99624.81
2022-10-01T20:21:29.754Z,99626.50
2022-10-01T20:26:37.921Z,99631.06
2022-10-01T20:31:47.320Z,99631.41
2022-10-01T20:36:56.893Z,99629.69
2022-10-01T20:42:01.293Z,99632.13
2022-10-01T20:47:05.546Z,99624.25
2022-10-01T20:52:16.449Z,99620.69
2022-10-01T20:57:26.108Z,99615.44
2022-10-01T21:02:33.551Z,99606.69
2022-10-01T21:07:38.932Z,99604.16
2022-10-01T21:12:45.873Z,99598.00
2022-10-01T21:17:53.559Z,99605.97
2022-10-01T21:23:05.988Z,99632.28
2022-10-01T21:28:16.114Z,99645.25
2022-10-01T21:33:23.909Z,99655.78
2022-10-01T21:38:30.552Z,99659.38
2022-10-01T21:43:40.306Z,99655.75
2022-10-01T21:48:47.763Z,99655.56
2022-10-01T21:53:59.000Z,99656.53
2022-10-01T21:59:09.253Z,99655.34
2022-10-01T22:04:16.779Z,99655.19
2022-10-01T22:09:23.146Z,99649.78
2022-10-01T22:14:28.671Z,99653.44
2022-10-01T22:19:33.081Z,99664.16
2022-10-01T22:24:39.534Z,99657.31
2022-10-01T22:29:47.111Z,99668.13
2022-10-01T22:34:54.420Z,99656.72
2022-10-01T22:40:00.264Z,99669.97
2022-10-01T22:45:10.351Z,99669.09
2022-10-01T22:50:23.791Z,99669.88
2022-10-01T22:55:32.383Z,99671.66
2022-10-01T23:00:40.470Z,99675.19
2022-10-01T23:05:52.545Z,99686.81
2022-10-01T23:11:01.832Z,99685.84
2022-10-01T23:16:10.785Z,99684.03
2022-10-01T23:21:21.162Z,99681.03
2022-10-01T23:26:30.973Z,99683.53
2022-10-01T23:31:39.041Z,99684.34
2022-10-01T23:36:47.551Z,99675.25
2022-10-01T23:41:54.864Z,99690.94
2022-10-01T23:47:01.818Z,99685.69
2022-10-01T23:52:07.709Z,99691.75
2022-10-01T23:57:14.257Z,99694.31
